sensor_id;sensor_type;location;lat;lon;timestamp;pressure;altitude;pressure_sealevel;temperature;humidity
74327;BME280;62745;51.060;13.786;2023-03-05T00:00:12;100284.06;;;2.53;81.46
74327;BME280;62745;51.060;13.786;2023-03-05T00:02:38;100289.72;;;2.49;80.42
74327;BME280;62745;51.060;13.786;2023-03-05T00:05:04;100274.59;;;2.51;80.50
74327;BME280;62745;51.060;13.786;2023-03-05T00:07:30;100286.81;;;2.52;80.79
74327;BME280;62745;51.060;13.786;2023-03-05T00:09:58;100289.19;;;2.55;81.08
74327;BME280;62745;51.060;13.786;2023-03-05T00:12:24;100282.66;;;2.49;80.66
74327;BME280;62745;51.060;13.786;2023-03-05T00:14:49;100274.34;;;2.54;80.22
74327;BME280;62745;51.060;13.786;2023-03-05T00:17:14;100281.97;;;2.57;79.92
74327;BME280;62745;51.060;13.786;2023-03-05T00:19:40;100272.38;;;2.46;80.66
74327;BME280;62745;51.060;13.786;2023-03-05T00:22:05;100272.94;;;2.50;78.97
74327;BME280;62745;51.060;13.786;2023-03-05T00:24:30;100271.41;;;2.47;79.05
74327;BME280;62745;51.060;13.786;2023-03-05T00:26:55;100278.63;;;2.45;79.35
74327;BME280;62745;51.060;13.786;2023-03-05T00:29:21;100268.50;;;2.40;78.83
74327;BME280;62745;51.060;13.786;2023-03-05T00:31:46;100279.75;;;2.42;79.79
74327;BME280;62745;51.060;13.786;2023-03-05T00:34:14;100268.50;;;2.40;80.19
74327;BME280;62745;51.060;13.786;2023-03-05T00:36:45;100261.84;;;2.46;80.47
74327;BME280;62745;51.060;13.786;2023-03-05T00:39:11;100266.84;;;2.39;80.00
74327;BME280;62745;51.060;13.786;2023-03-05T00:41:37;100260.88;;;2.37;80.65
74327;BME280;62745;51.060;13.786;2023-03-05T00:44:03;100259.34;;;2.35;80.26
74327;BME280;62745;51.060;13.786;2023-03-05T00:46:28;100251.31;;;2.27;80.16
74327;BME280;62745;51.060;13.786;2023-03-05T00:48:54;100245.34;;;2.25;80.61
74327;BME280;62745;51.060;13.786;2023-03-05T00:51:20;100250.75;;;2.33;80.05
74327;BME280;62745;51.060;13.786;2023-03-05T00:53:46;100251.03;;;2.30;79.81
74327;BME280;62745;51.060;13.786;2023-03-05T00:56:11;100240.34;;;2.22;79.94
74327;BME280;62745;51.060;13.786;2023-03-05T00:58:36;100241.88;;;2.24;79.55
74327;BME280;62745;51.060;13.786;2023-03-05T01:01:02;100239.66;;;2.20;79.61
74327;BME280;62745;51.060;13.786;2023-03-05T01:03:29;100235.09;;;2.22;80.08
74327;BME280;62745;51.060;13.786;2023-03-05T01:05:55;100231.03;;;2.18;79.56
74327;BME280;62745;51.060;13.786;2023-03-05T01:08:21;100231.88;;;2.18;78.52
74327;BME280;62745;51.060;13.786;2023-03-05T01:10:46;100235.22;;;2.20;78.40
74327;BME280;62745;51.060;13.786;2023-03-05T01:13:11;100233.00;;;2.16;78.61
74327;BME280;62745;51.060;13.786;2023-03-05T01:15:37;100218.28;;;2.13;78.61
74327;BME280;62745;51.060;13.786;2023-03-05T01:18:02;100227.84;;;2.14;78.37
74327;BME280;62745;51.060;13.786;2023-03-05T01:20:27;100216.78;;;2.10;78.23
74327;BME280;62745;51.060;13.786;2023-03-05T01:22:53;100215.25;;;2.08;77.92
74327;BME280;62745;51.060;13.786;2023-03-05T01:25:18;100208.31;;;2.07;78.86
74327;BME280;62745;51.060;13.786;2023-03-05T01:27:44;100218.03;;;2.06;78.21
74327;BME280;62745;51.060;13.786;2023-03-05T01:30:10;100217.34;;;2.04;77.74
74327;BME280;62745;51.060;13.786;2023-03-05T01:32:36;100218.16;;;2.05;77.28
74327;BME280;62745;51.060;13.786;2023-03-05T01:35:03;100212.31;;;2.01;77.89
74327;BME280;62745;51.060;13.786;2023-03-05T01:37:28;100208.31;;;2.07;77.62
74327;BME280;62745;51.060;13.786;2023-03-05T01:39:54;100201.09;;;1.99;77.63
74327;BME280;62745;51.060;13.786;2023-03-05T01:42:19;100205.53;;;1.99;76.28
74327;BME280;62745;51.060;13.786;2023-03-05T01:45:11;100193.88;;;1.92;76.07
74327;BME280;62745;51.060;13.786;2023-03-05T01:47:36;100198.03;;;1.94;76.74
74327;BME280;62745;51.060;13.786;2023-03-05T01:50:03;100193.75;;;1.93;76.07
74327;BME280;62745;51.060;13.786;2023-03-05T01:52:32;100205.94;;;1.94;75.49
74327;BME280;62745;51.060;13.786;2023-03-05T01:55:02;100192.91;;;1.93;75.65
74327;BME280;62745;51.060;13.786;2023-03-05T01:57:37;100195.69;;;1.91;74.85
74327;BME280;62745;51.060;13.786;2023-03-05T02:00:09;100191.53;;;1.89;74.47
74327;BME280;62745;51.060;13.786;2023-03-05T02:02:35;100193.47;;;1.87;75.21
74327;BME280;62745;51.060;13.786;2023-03-05T02:05:04;100190.13;;;1.85;73.01
74327;BME280;62745;51.060;13.786;2023-03-05T02:07:31;100195.00;;;1.89;73.83
74327;BME280;62745;51.060;13.786;2023-03-05T02:09:57;100197.09;;;1.86;73.36
74327;BME280;62745;51.060;13.786;2023-03-05T02:12:23;100192.66;;;1.86;72.43
74327;BME280;62745;51.060;13.786;2023-03-05T02:14:50;100183.09;;;1.85;73.09
74327;BME280;62745;51.060;13.786;2023-03-05T02:17:24;100182.38;;;1.83;72.96
74327;BME280;62745;51.060;13.786;2023-03-05T02:19:53;100185.13;;;1.81;72.59
74327;BME280;62745;51.060;13.786;2023-03-05T02:22:20;100180.84;;;1.80;71.93
74327;BME280;62745;51.060;13.786;2023-03-05T02:24:46;100183.91;;;1.76;72.90
74327;BME280;62745;51.060;13.786;2023-03-05T02:27:12;100182.22;;;1.75;73.46
74327;BME280;62745;51.060;13.786;2023-03-05T02:29:41;100167.41;;;1.74;73.93
74327;BME280;62745;51.060;13.786;2023-03-05T02:32:07;100172.81;;;1.72;74.22
74327;BME280;62745;51.060;13.786;2023-03-05T02:34:34;100173.19;;;1.68;74.36
74327;BME280;62745;51.060;13.786;2023-03-05T02:36:59;100164.47;;;1.67;75.16
74327;BME280;62745;51.060;13.786;2023-03-05T02:39:25;100167.53;;;1.63;74.58
74327;BME280;62745;51.060;13.786;2023-03-05T02:41:51;100156.84;;;1.64;75.22
74327;BME280;62745;51.060;13.786;2023-03-05T02:44:16;100157.97;;;1.62;76.01
74327;BME280;62745;51.060;13.786;2023-03-05T02:46:41;100166.81;;;1.61;74.68
74327;BME280;62745;51.060;13.786;2023-03-05T02:49:06;100163.66;;;1.57;74.33
74327;BME280;62745;51.060;13.786;2023-03-05T02:51:32;100159.34;;;1.56;74.94
74327;BME280;62745;51.060;13.786;2023-03-05T02:53:57;100160.31;;;1.55;74.82
74327;BME280;62745;51.060;13.786;2023-03-05T02:56:22;100158.91;;;1.51;74.96
74327;BME280;62745;51.060;13.786;2023-03-05T02:58:48;100164.75;;;1.55;75.32
74327;BME280;62745;51.060;13.786;2023-03-05T03:01:13;100147.53;;;1.50;74.45
74327;BME280;62745;51.060;13.786;2023-03-05T03:03:38;100158.38;;;1.57;74.85
74327;BME280;62745;51.060;13.786;2023-03-05T03:06:04;100159.50;;;1.55;74.51
74327;BME280;62745;51.060;13.786;2023-03-05T03:08:29;100156.72;;;1.56;73.48
74327;BME280;62745;51.060;13.786;2023-03-05T03:10:54;100150.34;;;1.59;74.00
74327;BME280;62745;51.060;13.786;2023-03-05T03:13:22;100158.53;;;1.56;73.92
74327;BME280;62745;51.060;13.786;2023-03-05T03:15:47;100150.91;;;1.53;73.79
74327;BME280;62745;51.060;13.786;2023-03-05T03:18:13;100148.50;;;1.49;73.89
74327;BME280;62745;51.060;13.786;2023-03-05T03:20:38;100152.25;;;1.47;73.23
74327;BME280;62745;51.060;13.786;2023-03-05T03:23:04;100160.00;;;1.48;72.54
74327;BME280;62745;51.060;13.786;2023-03-05T03:25:30;100134.09;;;1.44;73.02
74327;BME280;62745;51.060;13.786;2023-03-05T03:27:55;100146.03;;;1.48;74.23
74327;BME280;62745;51.060;13.786;2023-03-05T03:30:20;100148.50;;;1.49;74.00
74327;BME280;62745;51.060;13.786;2023-03-05T03:32:46;100134.53;;;1.49;73.55
74327;BME280;62745;51.060;13.786;2023-03-05T03:35:11;100148.78;;;1.46;73.13
74327;BME280;62745;51.060;13.786;2023-03-05T03:37:37;100151.28;;;1.38;73.60
74327;BME280;62745;51.060;13.786;2023-03-05T03:40:04;100146.31;;;1.45;74.54
74327;BME280;62745;51.060;13.786;2023-03-05T03:42:30;100136.19;;;1.40;73.55
74327;BME280;62745;51.060;13.786;2023-03-05T03:44:55;100135.09;;;1.43;73.77
74327;BME280;62745;51.060;13.786;2023-03-05T03:47:20;100139.09;;;1.37;73.97
74327;BME280;62745;51.060;13.786;2023-03-05T03:49:45;100135.91;;;1.43;73.42
74327;BME280;62745;51.060;13.786;2023-03-05T03:52:11;100121.50;;;1.38;73.38
74327;BME280;62745;51.060;13.786;2023-03-05T03:54:36;100130.22;;;1.38;73.51
74327;BME280;62745;51.060;13.786;2023-03-05T03:57:01;100124.84;;;1.40;73.42
74327;BME280;62745;51.060;13.786;2023-03-05T03:59:27;100120.41;;;1.40;73.70
74327;BME280;62745;51.060;13.786;2023-03-05T04:01:53;100122.19;;;1.40;73.17
74327;BME280;62745;51.060;13.786;2023-03-05T04:04:18;100119.84;;;1.37;73.15
74327;BME280;62745;51.060;13.786;2023-03-05T04:06:43;100122.47;;;1.37;73.23
74327;BME280;62745;51.060;13.786;2023-03-05T04:09:09;100116.38;;;1.36;72.81
74327;BME280;62745;51.060;13.786;2023-03-05T04:11:35;100117.47;;;1.34;72.90
74327;BME280;62745;51.060;13.786;2023-03-05T04:14:01;100108.63;;;1.35;73.19
74327;BME280;62745;51.060;13.786;2023-03-05T04:16:26;100115.94;;;1.31;72.64
74327;BME280;62745;51.060;13.786;2023-03-05T04:18:52;100102.38;;;1.26;72.67
74327;BME280;62745;51.060;13.786;2023-03-05T04:21:17;100101.53;;;1.26;72.58
74327;BME280;62745;51.060;13.786;2023-03-05T04:23:43;100099.03;;;1.34;72.92
74327;BME280;62745;51.060;13.786;2023-03-05T04:26:08;100105.00;;;1.26;72.36
74327;BME280;62745;51.060;13.786;2023-03-05T04:28:34;100107.34;;;1.29;73.11
74327;BME280;62745;51.060;13.786;2023-03-05T04:30:59;100102.66;;;1.33;72.36
74327;BME280;62745;51.060;13.786;2023-03-05T04:33:24;100109.97;;;1.29;72.94
74327;BME280;62745;51.060;13.786;2023-03-05T04:35:50;100097.09;;;1.26;72.42
74327;BME280;62745;51.060;13.786;2023-03-05T04:38:15;100106.25;;;1.32;73.09
74327;BME280;62745;51.060;13.786;2023-03-05T04:40:40;100087.00;;;1.22;73.45
74327;BME280;62745;51.060;13.786;2023-03-05T04:43:06;100099.03;;;1.34;72.48
74327;BME280;62745;51.060;13.786;2023-03-05T04:45:31;100091.56;;;1.29;73.09
74327;BME280;62745;51.060;13.786;2023-03-05T04:47:57;100094.06;;;1.31;73.67
74327;BME280;62745;51.060;13.786;2023-03-05T04:50:22;100083.66;;;1.29;74.25
74327;BME280;62745;51.060;13.786;2023-03-05T04:52:48;100091.84;;;1.26;75.01
74327;BME280;62745;51.060;13.786;2023-03-05T04:55:14;100091.00;;;1.26;75.18
74327;BME280;62745;51.060;13.786;2023-03-05T04:57:40;100088.38;;;1.26;75.34
74327;BME280;62745;51.060;13.786;2023-03-05T05:00:07;100084.63;;;1.28;76.02
74327;BME280;62745;51.060;13.786;2023-03-05T05:02:38;100093.78;;;1.24;76.80
74327;BME280;62745;51.060;13.786;2023-03-05T05:05:03;100084.66;;;1.18;77.77
74327;BME280;62745;51.060;13.786;2023-03-05T05:07:28;100099.56;;;1.08;78.96
74327;BME280;62745;51.060;13.786;2023-03-05T05:09:54;100088.75;;;1.02;80.95
74327;BME280;62745;51.060;13.786;2023-03-05T05:12:19;100090.28;;;1.04;80.34
74327;BME280;62745;51.060;13.786;2023-03-05T05:14:44;100092.47;;;0.99;81.43
74327;BME280;62745;51.060;13.786;2023-03-05T05:17:09;100088.88;;;1.00;82.62
74327;BME280;62745;51.060;13.786;2023-03-05T05:19:35;100087.75;;;0.93;82.85
74327;BME280;62745;51.060;13.786;2023-03-05T05:22:00;100092.31;;;0.91;82.89
74327;BME280;62745;51.060;13.786;2023-03-05T05:24:26;100093.16;;;0.92;82.39
74327;BME280;62745;51.060;13.786;2023-03-05T05:26:54;100085.25;;;0.92;82.90
74327;BME280;62745;51.060;13.786;2023-03-05T05:29:20;100080.41;;;0.87;82.94
74327;BME280;62745;51.060;13.786;2023-03-05T05:31:46;100076.00;;;0.87;82.94
74327;BME280;62745;51.060;13.786;2023-03-05T05:34:11;100081.94;;;0.89;83.12
74327;BME280;62745;51.060;13.786;2023-03-05T05:36:37;100076.69;;;0.89;82.58
74327;BME280;62745;51.060;13.786;2023-03-05T05:39:03;100070.03;;;0.95;82.57
74327;BME280;62745;51.060;13.786;2023-03-05T05:41:28;100062.72;;;0.89;81.75
74327;BME280;62745;51.060;13.786;2023-03-05T05:43:53;100065.88;;;0.93;81.99
74327;BME280;62745;51.060;13.786;2023-03-05T05:46:20;100060.34;;;0.96;82.17
74327;BME280;62745;51.060;13.786;2023-03-05T05:48:46;100071.88;;;1.04;82.08
74327;BME280;62745;51.060;13.786;2023-03-05T05:51:14;100079.06;;;1.02;81.41
74327;BME280;62745;51.060;13.786;2023-03-05T05:53:39;100073.41;;;1.07;81.05
74327;BME280;62745;51.060;13.786;2023-03-05T05:56:06;100070.78;;;1.07;80.12
74327;BME280;62745;51.060;13.786;2023-03-05T05:58:33;100084.88;;;1.15;80.19
74327;BME280;62745;51.060;13.786;2023-03-05T06:00:59;100079.78;;;1.14;80.12
74327;BME280;62745;51.060;13.786;2023-03-05T06:03:24;100081.59;;;1.23;78.13
74327;BME280;62745;51.060;13.786;2023-03-05T06:05:49;100080.63;;;1.24;78.65
74327;BME280;62745;51.060;13.786;2023-03-05T06:08:16;100078.13;;;1.32;78.20
74327;BME280;62745;51.060;13.786;2023-03-05T06:10:41;100070.66;;;1.28;78.23
74327;BME280;62745;51.060;13.786;2023-03-05T06:13:07;100066.22;;;1.28;79.15
74327;BME280;62745;51.060;13.786;2023-03-05T06:15:32;100056.41;;;1.20;77.61
74327;BME280;62745;51.060;13.786;2023-03-05T06:17:58;100065.53;;;1.26;77.41
74327;BME280;62745;51.060;13.786;2023-03-05T06:20:24;100070.22;;;1.32;77.62
74327;BME280;62745;51.060;13.786;2023-03-05T06:22:49;100073.56;;;1.34;75.91
74327;BME280;62745;51.060;13.786;2023-03-05T06:25:15;100079.13;;;1.41;75.58
74327;BME280;62745;51.060;13.786;2023-03-05T06:27:40;100071.09;;;1.42;75.86
74327;BME280;62745;51.060;13.786;2023-03-05T06:30:06;100069.00;;;1.46;76.13
74327;BME280;62745;51.060;13.786;2023-03-05T06:32:32;100068.03;;;1.47;75.49
74327;BME280;62745;51.060;13.786;2023-03-05T06:34:57;100067.50;;;1.53;75.57
74327;BME280;62745;51.060;13.786;2023-03-05T06:37:22;100071.34;;;1.49;74.94
74327;BME280;62745;51.060;13.786;2023-03-05T06:39:47;100064.03;;;1.53;74.82
74327;BME280;62745;51.060;13.786;2023-03-05T06:42:13;100071.09;;;1.52;74.33
74327;BME280;62745;51.060;13.786;2023-03-05T06:44:39;100078.56;;;1.57;75.37
74327;BME280;62745;51.060;13.786;2023-03-05T06:47:06;100071.78;;;1.54;75.46
74327;BME280;62745;51.060;13.786;2023-03-05T06:49:32;100073.16;;;1.58;75.76
74327;BME280;62745;51.060;13.786;2023-03-05T06:51:57;100074.28;;;1.56;75.18
74327;BME280;62745;51.060;13.786;2023-03-05T06:54:23;100073.31;;;1.57;75.32
74327;BME280;62745;51.060;13.786;2023-03-05T06:56:48;100056.97;;;1.53;75.49
74327;BME280;62745;51.060;13.786;2023-03-05T06:59:15;100055.84;;;1.56;75.56
74327;BME280;62745;51.060;13.786;2023-03-05T07:01:41;100071.06;;;1.62;75.21
74327;BME280;62745;51.060;13.786;2023-03-05T07:04:06;100081.31;;;1.65;75.94
74327;BME280;62745;51.060;13.786;2023-03-05T07:06:34;100072.75;;;1.43;79.57
74327;BME280;62745;51.060;13.786;2023-03-05T07:09:00;100077.84;;;1.26;80.18
74327;BME280;62745;51.060;13.786;2023-03-05T07:11:29;100074.13;;;1.28;79.97
74327;BME280;62745;51.060;13.786;2023-03-05T07:13:54;100083.81;;;1.28;79.54
74327;BME280;62745;51.060;13.786;2023-03-05T07:16:28;100084.50;;;1.30;80.10
74327;BME280;62745;51.060;13.786;2023-03-05T07:18:55;100075.91;;;1.28;80.75
74327;BME280;62745;51.060;13.786;2023-03-05T07:21:23;100077.28;;;1.32;79.93
74327;BME280;62745;51.060;13.786;2023-03-05T07:23:49;100071.50;;;1.38;80.24
74327;BME280;62745;51.060;13.786;2023-03-05T07:26:17;100069.97;;;1.35;80.39
74327;BME280;62745;51.060;13.786;2023-03-05T07:28:42;100068.28;;;1.34;80.55
74327;BME280;62745;51.060;13.786;2023-03-05T07:31:11;100070.66;;;1.28;81.47
74327;BME280;62745;51.060;13.786;2023-03-05T07:33:37;100070.34;;;1.11;81.46
74327;BME280;62745;51.060;13.786;2023-03-05T07:36:03;100072.56;;;1.16;82.19
74327;BME280;62745;51.060;13.786;2023-03-05T07:38:32;100074.66;;;1.22;82.83
74327;BME280;62745;51.060;13.786;2023-03-05T07:41:02;100075.34;;;1.34;82.57
74327;BME280;62745;51.060;13.786;2023-03-05T07:43:27;100068.56;;;1.31;82.50
74327;BME280;62745;51.060;13.786;2023-03-05T07:45:52;100066.09;;;1.39;82.88
74327;BME280;62745;51.060;13.786;2023-03-05T07:48:18;100065.81;;;1.42;82.47
74327;BME280;62745;51.060;13.786;2023-03-05T07:50:47;100074.13;;;1.47;81.60
74327;BME280;62745;51.060;13.786;2023-03-05T07:53:12;100069.41;;;1.51;82.21
74327;BME280;62745;51.060;13.786;2023-03-05T07:55:45;100061.69;;;1.69;80.21
74327;BME280;62745;51.060;13.786;2023-03-05T07:58:12;100062.50;;;1.69;80.80
74327;BME280;62745;51.060;13.786;2023-03-05T08:00:38;100054.75;;;1.58;80.34
74327;BME280;62745;51.060;13.786;2023-03-05T08:03:03;100057.22;;;1.60;81.40
74327;BME280;62745;51.060;13.786;2023-03-05T08:05:29;100053.34;;;1.73;81.33
74327;BME280;62745;51.060;13.786;2023-03-05T08:07:54;100052.66;;;1.62;81.48
74327;BME280;62745;51.060;13.786;2023-03-05T08:10:19;100045.03;;;1.59;81.06
74327;BME280;62745;51.060;13.786;2023-03-05T08:12:45;100048.50;;;1.59;81.64
74327;BME280;62745;51.060;13.786;2023-03-05T08:15:10;100055.84;;;1.46;82.95
74327;BME280;62745;51.060;13.786;2023-03-05T08:17:36;100052.69;;;1.52;83.68
74327;BME280;62745;51.060;13.786;2023-03-05T08:20:02;100045.59;;;1.33;85.65
74327;BME280;62745;51.060;13.786;2023-03-05T08:22:31;100048.38;;;1.22;87.70
74327;BME280;62745;51.060;13.786;2023-03-05T08:24:57;100052.44;;;2.86;98.24
74327;BME280;62745;51.060;13.786;2023-03-05T08:27:22;100045.22;;;3.23;84.96
74327;BME280;62745;51.060;13.786;2023-03-05T08:29:47;100046.16;;;4.19;87.36
74327;BME280;62745;51.060;13.786;2023-03-05T08:32:12;100055.69;;;3.86;80.96
74327;BME280;62745;51.060;13.786;2023-03-05T08:34:38;100031.50;;;4.25;82.02
74327;BME280;62745;51.060;13.786;2023-03-05T08:37:03;100032.03;;;4.71;77.48
74327;BME280;62745;51.060;13.786;2023-03-05T08:39:30;100022.84;;;4.49;76.88
74327;BME280;62745;51.060;13.786;2023-03-05T08:41:55;100030.59;;;4.16;77.35
74327;BME280;62745;51.060;13.786;2023-03-05T08:44:20;100025.38;;;3.99;77.87
74327;BME280;62745;51.060;13.786;2023-03-05T08:46:45;100023.00;;;4.13;79.23
74327;BME280;62745;51.060;13.786;2023-03-05T08:49:11;100014.66;;;4.68;77.63
74327;BME280;62745;51.060;13.786;2023-03-05T08:51:36;100021.41;;;4.63;75.89
74327;BME280;62745;51.060;13.786;2023-03-05T08:54:01;100016.72;;;4.48;77.17
74327;BME280;62745;51.060;13.786;2023-03-05T08:56:30;100008.78;;;4.48;75.92
74327;BME280;62745;51.060;13.786;2023-03-05T08:58:56;100017.88;;;4.46;74.44
74327;BME280;62745;51.060;13.786;2023-03-05T09:01:21;100016.31;;;4.35;75.44
74327;BME280;62745;51.060;13.786;2023-03-05T09:03:47;100003.47;;;4.40;75.16
74327;BME280;62745;51.060;13.786;2023-03-05T09:06:13;100008.44;;;4.43;74.69
74327;BME280;62745;51.060;13.786;2023-03-05T09:08:39;100009.44;;;4.16;76.22
74327;BME280;62745;51.060;13.786;2023-03-05T09:11:05;100005.28;;;4.06;78.23
74327;BME280;62745;51.060;13.786;2023-03-05T09:13:32;100000.53;;;3.66;79.62
74327;BME280;62745;51.060;13.786;2023-03-05T09:16:03;100010.94;;;3.67;79.84
74327;BME280;62745;51.060;13.786;2023-03-05T09:18:30;100013.75;;;3.48;80.91
74327;BME280;62745;51.060;13.786;2023-03-05T09:20:57;100000.59;;;3.74;83.31
74327;BME280;62745;51.060;13.786;2023-03-05T09:23:22;100004.28;;;3.37;83.39
74327;BME280;62745;51.060;13.786;2023-03-05T09:25:47;99991.59;;;3.41;83.81
74327;BME280;62745;51.060;13.786;2023-03-05T09:28:13;99996.50;;;3.00;83.87
74327;BME280;62745;51.060;13.786;2023-03-05T09:30:39;100004.50;;;2.90;85.11
74327;BME280;62745;51.060;13.786;2023-03-05T09:33:04;99991.22;;;2.27;87.68
74327;BME280;62745;51.060;13.786;2023-03-05T09:35:32;100016.09;;;1.68;91.04
74327;BME280;62745;51.060;13.786;2023-03-05T09:37:58;100004.31;;;1.53;92.54
74327;BME280;62745;51.060;13.786;2023-03-05T09:40:23;100008.47;;;1.56;93.78
74327;BME280;62745;51.060;13.786;2023-03-05T09:42:57;100006.38;;;1.49;92.74
74327;BME280;62745;51.060;13.786;2023-03-05T09:45:36;99992.53;;;1.57;93.22
74327;BME280;62745;51.060;13.786;2023-03-05T09:48:21;99987.91;;;1.78;92.79
74327;BME280;62745;51.060;13.786;2023-03-05T09:51:00;99990.78;;;1.95;92.02
74327;BME280;62745;51.060;13.786;2023-03-05T09:56:04;99977.22;;;2.27;90.05
74327;BME280;62745;51.060;13.786;2023-03-05T09:58:38;99957.56;;;2.21;88.82
74327;BME280;62745;51.060;13.786;2023-03-05T10:01:09;99972.78;;;2.27;88.81
74327;BME280;62745;51.060;13.786;2023-03-05T10:03:42;99969.72;;;2.50;87.91
74327;BME280;62745;51.060;13.786;2023-03-05T10:06:16;99964.72;;;2.56;86.01
74327;BME280;62745;51.060;13.786;2023-03-05T10:08:51;99957.72;;;2.65;88.48
74327;BME280;62745;51.060;13.786;2023-03-05T10:11:42;99957.50;;;2.76;87.23
74327;BME280;62745;51.060;13.786;2023-03-05T10:14:32;99952.41;;;2.92;86.87
74327;BME280;62745;51.060;13.786;2023-03-05T10:17:24;99945.13;;;2.59;83.31
74327;BME280;62745;51.060;13.786;2023-03-05T10:22:30;99938.91;;;2.78;82.87
74327;BME280;62745;51.060;13.786;2023-03-05T10:25:45;99934.75;;;2.93;83.42
74327;BME280;62745;51.060;13.786;2023-03-05T10:28:16;99941.53;;;2.95;82.91
74327;BME280;62745;51.060;13.786;2023-03-05T10:31:08;99937.84;;;2.88;82.66
74327;BME280;62745;51.060;13.786;2023-03-05T10:36:44;99918.25;;;3.09;80.89
74327;BME280;62745;51.060;13.786;2023-03-05T10:45:04;99918.00;;;3.98;75.70
74327;BME280;62745;51.060;13.786;2023-03-05T10:47:43;99904.53;;;3.75;72.08
74327;BME280;62745;51.060;13.786;2023-03-05T10:50:24;99894.31;;;3.80;71.59
74327;BME280;62745;51.060;13.786;2023-03-05T10:53:00;99901.16;;;3.99;71.82
74327;BME280;62745;51.060;13.786;2023-03-05T10:55:30;99894.97;;;3.82;71.32
74327;BME280;62745;51.060;13.786;2023-03-05T10:57:56;99894.63;;;3.77;71.67
74327;BME280;62745;51.060;13.786;2023-03-05T11:00:23;99907.38;;;3.55;72.33
74327;BME280;62745;51.060;13.786;2023-03-05T11:02:59;99895.25;;;3.45;73.26
74327;BME280;62745;51.060;13.786;2023-03-05T11:08:22;99903.25;;;3.35;73.83
74327;BME280;62745;51.060;13.786;2023-03-05T11:13:27;99897.72;;;3.46;75.31
74327;BME280;62745;51.060;13.786;2023-03-05T11:16:00;99886.69;;;3.51;74.82
74327;BME280;62745;51.060;13.786;2023-03-05T11:18:25;99900.69;;;3.43;74.60
74327;BME280;62745;51.060;13.786;2023-03-05T11:20:51;99887.50;;;3.43;72.79
74327;BME280;62745;51.060;13.786;2023-03-05T11:23:20;99889.00;;;3.46;72.41
74327;BME280;62745;51.060;13.786;2023-03-05T11:28:25;99882.69;;;3.39;73.93
74327;BME280;62745;51.060;13.786;2023-03-05T11:31:04;99882.38;;;3.42;74.93
74327;BME280;62745;51.060;13.786;2023-03-05T11:33:32;99879.00;;;3.31;75.85
74327;BME280;62745;51.060;13.786;2023-03-05T11:36:20;99875.78;;;3.46;74.12
74327;BME280;62745;51.060;13.786;2023-03-05T11:38:59;99877.13;;;3.24;75.92
74327;BME280;62745;51.060;13.786;2023-03-05T11:44:02;99865.13;;;3.29;75.79
74327;BME280;62745;51.060;13.786;2023-03-05T11:46:30;99862.38;;;3.39;75.28
74327;BME280;62745;51.060;13.786;2023-03-05T11:49:01;99861.91;;;3.44;75.41
74327;BME280;62745;51.060;13.786;2023-03-05T11:51:47;99851.13;;;3.63;75.93
74327;BME280;62745;51.060;13.786;2023-03-05T11:54:21;99848.81;;;3.68;75.92
74327;BME280;62745;51.060;13.786;2023-03-05T11:56:48;99857.44;;;3.70;76.08
74327;BME280;62745;51.060;13.786;2023-03-05T11:59:19;99848.41;;;3.47;74.89
74327;BME280;62745;51.060;13.786;2023-03-05T12:01:50;99845.25;;;3.43;76.07
74327;BME280;62745;51.060;13.786;2023-03-05T12:04:17;99846.25;;;3.50;76.78
74327;BME280;62745;51.060;13.786;2023-03-05T12:06:56;99826.50;;;3.28;76.52
74327;BME280;62745;51.060;13.786;2023-03-05T12:12:17;99844.56;;;3.15;78.61
74327;BME280;62745;51.060;13.786;2023-03-05T12:14:57;99832.69;;;2.93;79.56
74327;BME280;62745;51.060;13.786;2023-03-05T12:17:33;99831.47;;;3.06;79.81
74327;BME280;62745;51.060;13.786;2023-03-05T12:20:18;99834.75;;;3.25;80.00
74327;BME280;62745;51.060;13.786;2023-03-05T12:22:47;99826.88;;;3.08;80.42
74327;BME280;62745;51.060;13.786;2023-03-05T12:25:31;99814.16;;;3.03;80.74
74327;BME280;62745;51.060;13.786;2023-03-05T12:27:57;99814.81;;;3.05;80.51
74327;BME280;62745;51.060;13.786;2023-03-05T12:33:39;99803.13;;;3.08;80.38
74327;BME280;62745;51.060;13.786;2023-03-05T12:38:50;99797.22;;;3.40;80.17
74327;BME280;62745;51.060;13.786;2023-03-05T12:46:39;99784.78;;;3.32;79.31
74327;BME280;62745;51.060;13.786;2023-03-05T12:49:27;99803.22;;;3.24;77.42
74327;BME280;62745;51.060;13.786;2023-03-05T12:51:54;99778.53;;;4.91;83.44
74327;BME280;62745;51.060;13.786;2023-03-05T12:57:01;99782.78;;;5.16;72.54
74327;BME280;62745;51.060;13.786;2023-03-05T12:59:58;99779.03;;;5.58;73.66
74327;BME280;62745;51.060;13.786;2023-03-05T13:02:35;99779.56;;;5.45;73.32
74327;BME280;62745;51.060;13.786;2023-03-05T13:05:04;99769.09;;;5.04;71.88
74327;BME280;62745;51.060;13.786;2023-03-05T13:07:32;99775.81;;;5.15;71.78
74327;BME280;62745;51.060;13.786;2023-03-05T13:09:58;99766.88;;;5.24;74.20
74327;BME280;62745;51.060;13.786;2023-03-05T13:12:26;99763.03;;;5.35;73.55
74327;BME280;62745;51.060;13.786;2023-03-05T13:14:58;99759.50;;;5.51;71.85
74327;BME280;62745;51.060;13.786;2023-03-05T13:17:28;99740.75;;;5.21;71.73
74327;BME280;62745;51.060;13.786;2023-03-05T13:19:54;99759.84;;;5.48;71.70
74327;BME280;62745;51.060;13.786;2023-03-05T13:22:20;99754.66;;;5.15;72.04
74327;BME280;62745;51.060;13.786;2023-03-05T13:24:45;99759.28;;;5.21;71.09
74327;BME280;62745;51.060;13.786;2023-03-05T13:27:31;99755.13;;;5.27;70.83
74327;BME280;62745;51.060;13.786;2023-03-05T13:29:56;99745.06;;;5.61;73.21
74327;BME280;62745;51.060;13.786;2023-03-05T13:32:26;99744.47;;;4.88;72.23
74327;BME280;62745;51.060;13.786;2023-03-05T13:34:54;99747.78;;;5.37;72.06
74327;BME280;62745;51.060;13.786;2023-03-05T13:37:23;99739.91;;;5.21;70.61